createdAt,value
2022-08-28T00:00:18.251Z,40.47
2022-08-28T00:00:55.558Z,40.62
2022-08-28T00:01:32.985Z,40.50
2022-08-28T00:02:12.956Z,40.75
2022-08-28T00:02:50.208Z,40.98
2022-08-28T00:03:26.840Z,40.35
2022-08-28T00:04:04.035Z,40.61
2022-08-28T00:04:41.727Z,40.31
2022-08-28T00:05:19.591Z,40.37
2022-08-28T00:05:56.727Z,40.42
2022-08-28T00:06:33.417Z,42.12
2022-08-28T00:07:13.693Z,41.56
2022-08-28T00:07:52.623Z,40.22
2022-08-28T00:08:29.441Z,40.40
2022-08-28T00:09:07.561Z,40.55
2022-08-28T00:09:44.865Z,40.38
2022-08-28T00:10:22.684Z,40.85
2022-08-28T00:10:59.817Z,40.46
2022-08-28T00:11:37.877Z,41.41
2022-08-28T00:12:15.543Z,41.23
2022-08-28T00:12:53.923Z,40.74
2022-08-28T00:13:32.107Z,40.58
2022-08-28T00:14:11.823Z,40.39
2022-08-28T00:14:49.878Z,40.61
2022-08-28T00:15:28.733Z,40.30
2022-08-28T00:16:05.856Z,40.46
2022-08-28T00:16:43.942Z,40.29
2022-08-28T00:17:22.160Z,40.54
2022-08-28T00:17:59.648Z,40.38
2022-08-28T00:18:37.712Z,40.42
2022-08-28T00:19:18.199Z,39.98
2022-08-28T00:19:56.736Z,40.47
2022-08-28T00:20:37.548Z,40.34
2022-08-28T00:21:18.511Z,40.61
2022-08-28T00:21:59.599Z,40.59
2022-08-28T00:22:40.903Z,39.85
2022-08-28T00:23:21.272Z,40.32
2022-08-28T00:24:02.338Z,40.01
2022-08-28T00:24:39.812Z,40.59
2022-08-28T00:25:17.902Z,39.80
2022-08-28T00:25:56.047Z,41.53
2022-08-28T00:26:33.500Z,39.73
2022-08-28T00:27:11.660Z,41.28
2022-08-28T00:27:49.034Z,40.29
2022-08-28T00:28:26.993Z,39.76
2022-08-28T00:29:04.268Z,39.61
2022-08-28T00:29:42.649Z,39.96
2022-08-28T00:30:20.269Z,40.06
2022-08-28T00:30:57.991Z,41.07
2022-08-28T00:31:34.880Z,40.11
2022-08-28T00:32:13.097Z,40.29
2022-08-28T00:32:52.720Z,40.82
2022-08-28T00:33:33.198Z,40.14
2022-08-28T00:34:13.604Z,39.40
2022-08-28T00:34:55.069Z,39.64
2022-08-28T00:35:32.938Z,39.35
2022-08-28T00:36:10.707Z,39.74
2022-08-28T00:36:48.158Z,40.19
2022-08-28T00:37:26.134Z,39.62
2022-08-28T00:38:03.351Z,40.07
2022-08-28T00:38:41.397Z,39.90
2022-08-28T00:39:19.828Z,39.70
2022-08-28T00:40:00.302Z,39.99
2022-08-28T00:40:43.157Z,39.71
2022-08-28T00:41:27.527Z,39.50
2022-08-28T00:42:07.909Z,39.86
2022-08-28T00:42:49.340Z,39.62
2022-08-28T00:43:45.491Z,39.82
2022-08-28T00:44:25.503Z,39.71
2022-08-28T00:45:03.974Z,39.84
2022-08-28T00:45:42.615Z,39.31
2022-08-28T00:46:23.028Z,39.47
2022-08-28T00:47:00.099Z,38.65
2022-08-28T00:47:37.069Z,39.59
2022-08-28T00:48:14.507Z,39.20
2022-08-28T00:48:51.974Z,39.82
2022-08-28T00:49:29.589Z,39.92
2022-08-28T00:50:07.312Z,39.97
2022-08-28T00:50:46.333Z,39.61
2022-08-28T00:51:24.255Z,39.83
2022-08-28T00:52:02.542Z,40.02
2022-08-28T00:52:40.975Z,40.05
2022-08-28T00:53:18.804Z,39.72
2022-08-28T00:53:58.812Z,40.02
2022-08-28T00:54:36.335Z,39.89
2022-08-28T00:55:13.945Z,39.67
2022-08-28T00:55:52.790Z,39.94
2022-08-28T00:56:30.093Z,39.99
2022-08-28T00:57:07.047Z,39.67
2022-08-28T00:57:44.646Z,39.92
2022-08-28T00:58:22.059Z,39.69
2022-08-28T00:58:59.710Z,39.01
2022-08-28T00:59:37.429Z,39.82
2022-08-28T01:00:14.404Z,40.13
2022-08-28T01:00:51.974Z,39.88
2022-08-28T01:01:29.906Z,40.07
2022-08-28T01:02:07.390Z,38.99
2022-08-28T01:02:44.452Z,39.45
2022-08-28T01:03:25.143Z,37.76
2022-08-28T01:04:03.327Z,38.87
2022-08-28T01:04:43.921Z,38.84
2022-08-28T01:05:25.666Z,37.92
2022-08-28T01:06:05.345Z,38.53
2022-08-28T01:06:47.238Z,39.09
2022-08-28T01:07:30.828Z,37.91
2022-08-28T01:08:13.399Z,38.64
2022-08-28T01:08:53.892Z,38.40
2022-08-28T01:09:32.412Z,38.64
2022-08-28T01:10:14.024Z,39.01
2022-08-28T01:10:55.542Z,38.86
2022-08-28T01:11:43.550Z,38.82
2022-08-28T01:12:29.660Z,40.76
2022-08-28T01:13:14.653Z,38.73
2022-08-28T01:13:52.974Z,38.92
2022-08-28T01:14:30.466Z,40.01
2022-08-28T01:15:09.503Z,38.84
2022-08-28T01:15:47.149Z,39.03
2022-08-28T01:16:31.630Z,39.06
2022-08-28T01:17:11.561Z,40.46
2022-08-28T01:17:51.687Z,39.05
2022-08-28T01:18:29.307Z,38.67
2022-08-28T01:19:06.819Z,38.78
2022-08-28T01:19:44.279Z,38.79
2022-08-28T01:20:22.091Z,38.75
2022-08-28T01:21:08.553Z,38.69
2022-08-28T01:22:04.062Z,38.82
2022-08-28T01:22:41.267Z,39.00
2022-08-28T01:23:36.104Z,40.24
2022-08-28T01:24:14.668Z,39.16
2022-08-28T01:24:52.143Z,38.94
2022-08-28T01:25:29.313Z,39.13
2022-08-28T01:26:11.741Z,38.63
2022-08-28T01:26:54.102Z,39.00
2022-08-28T01:27:44.621Z,38.93
2022-08-28T01:28:27.899Z,39.14
2022-08-28T01:29:05.335Z,38.97
2022-08-28T01:29:42.912Z,38.79
2022-08-28T01:30:21.775Z,38.80
2022-08-28T01:30:58.762Z,38.88
2022-08-28T01:31:35.984Z,38.97
2022-08-28T01:32:12.822Z,38.77
2022-08-28T01:32:51.744Z,38.95
2022-08-28T01:33:28.932Z,39.40
2022-08-28T01:34:05.529Z,39.18
2022-08-28T01:34:42.332Z,39.30
2022-08-28T01:35:19.834Z,39.21
2022-08-28T01:35:57.026Z,39.19
2022-08-28T01:36:34.822Z,39.05
2022-08-28T01:37:12.437Z,39.34
2022-08-28T01:37:51.001Z,39.28
2022-08-28T01:38:28.806Z,39.82
2022-08-28T01:39:06.685Z,39.50
2022-08-28T01:39:44.001Z,39.36
2022-08-28T01:40:22.949Z,39.24
2022-08-28T01:41:00.471Z,39.56
2022-08-28T01:41:38.173Z,39.38
2022-08-28T01:42:15.818Z,39.42
2022-08-28T01:42:53.743Z,39.61
2022-08-28T01:43:31.842Z,39.58
2022-08-28T01:44:09.843Z,39.67
2022-08-28T01:44:47.330Z,39.73
2022-08-28T01:45:25.352Z,39.58
2022-08-28T01:46:03.272Z,39.70
2022-08-28T01:46:43.322Z,39.64
2022-08-28T01:47:23.169Z,39.50
2022-08-28T01:48:06.873Z,39.36
2022-08-28T01:48:50.930Z,40.73
2022-08-28T01:49:32.579Z,39.24
2022-08-28T01:50:15.628Z,39.79
2022-08-28T01:51:02.419Z,39.19
2022-08-28T01:51:43.403Z,39.89
2022-08-28T01:52:26.449Z,39.92
2022-08-28T01:53:07.035Z,39.59
2022-08-28T01:53:58.032Z,38.04
2022-08-28T01:54:44.286Z,37.87
2022-08-28T01:55:23.497Z,38.50
2022-08-28T01:56:11.819Z,39.38
2022-08-28T01:56:48.138Z,39.53
2022-08-28T01:57:25.412Z,39.10
2022-08-28T01:58:02.975Z,39.13
2022-08-28T01:58:40.357Z,39.43
2022-08-28T01:59:18.325Z,37.64
2022-08-28T01:59:55.641Z,38.85
2022-08-28T02:00:32.780Z,39.11
2022-08-28T02:01:14.483Z,38.04
2022-08-28T02:01:52.142Z,38.72
2022-08-28T02:02:29.914Z,39.09
2022-08-28T02:03:07.461Z,38.95
2022-08-28T02:03:46.055Z,38.86
2022-08-28T02:04:31.761Z,38.93
2022-08-28T02:05:09.044Z,38.94
2022-08-28T02:05:46.236Z,38.08
2022-08-28T02:06:24.443Z,38.94
2022-08-28T02:07:01.185Z,37.97
2022-08-28T02:07:38.848Z,37.98
2022-08-28T02:08:15.591Z,38.19
2022-08-28T02:08:52.601Z,37.62
2022-08-28T02:09:29.437Z,38.71
2022-08-28T02:10:06.675Z,37.33
2022-08-28T02:10:43.605Z,38.49
2022-08-28T02:11:21.655Z,38.70
2022-08-28T02:11:59.412Z,38.41
2022-08-28T02:12:38.398Z,38.77
2022-08-28T02:13:19.968Z,38.92
2022-08-28T02:14:02.345Z,38.28
2022-08-28T02:14:42.977Z,38.67
2022-08-28T02:15:24.398Z,38.69
2022-08-28T02:16:06.995Z,39.05
2022-08-28T02:16:57.373Z,38.31
2022-08-28T02:17:40.109Z,38.79
2022-08-28T02:18:22.208Z,38.09
2022-08-28T02:19:01.022Z,37.84
2022-08-28T02:19:38.568Z,37.53
2022-08-28T02:20:15.554Z,38.43
2022-08-28T02:20:52.776Z,38.06
2022-08-28T02:21:32.830Z,38.38
2022-08-28T02:22:10.431Z,38.10
2022-08-28T02:22:47.617Z,37.34
2022-08-28T02:23:24.234Z,38.23
2022-08-28T02:24:01.723Z,37.96
2022-08-28T02:24:39.442Z,37.58
2022-08-28T02:25:16.975Z,37.38
2022-08-28T02:25:54.992Z,37.80
2022-08-28T02:26:32.364Z,37.71
2022-08-28T02:27:11.054Z,38.25
2022-08-28T02:27:48.706Z,37.50
2022-08-28T02:28:26.126Z,37.77
2022-08-28T02:29:03.558Z,37.97
2022-08-28T02:29:41.483Z,37.92
2022-08-28T02:30:18.369Z,37.29
2022-08-28T02:30:55.588Z,37.45
2022-08-28T02:31:33.607Z,37.87
2022-08-28T02:32:13.176Z,37.68
2022-08-28T02:32:51.084Z,38.05
2022-08-28T02:33:28.973Z,37.64
2022-08-28T02:34:10.341Z,37.74
2022-08-28T02:34:48.055Z,37.88
2022-08-28T02:35:25.891Z,37.68
2022-08-28T02:36:03.340Z,37.57
2022-08-28T02:36:43.283Z,37.76
2022-08-28T02:37:22.281Z,37.85
2022-08-28T02:38:03.717Z,37.26
2022-08-28T02:38:44.987Z,37.19
2022-08-28T02:39:26.493Z,37.60
2022-08-28T02:40:04.315Z,37.56
2022-08-28T02:40:42.955Z,37.61
2022-08-28T02:41:25.649Z,37.42
2022-08-28T02:42:07.709Z,37.23
2022-08-28T02:42:49.314Z,37.53
2022-08-28T02:43:30.582Z,37.54
2022-08-28T02:44:12.873Z,37.89
2022-08-28T02:44:51.092Z,37.27
2022-08-28T02:45:28.270Z,37.36
2022-08-28T02:46:05.404Z,37.52
2022-08-28T02:46:42.823Z,36.98
2022-08-28T02:47:19.547Z,37.47
2022-08-28T02:47:56.895Z,37.37
2022-08-28T02:48:34.214Z,37.59
2022-08-28T02:49:13.939Z,37.64
2022-08-28T02:49:53.262Z,37.46
2022-08-28T02:50:35.606Z,37.19
2022-08-28T02:51:17.026Z,37.37
2022-08-28T02:52:03.378Z,37.22
2022-08-28T02:52:49.300Z,37.33
2022-08-28T02:53:25.882Z,37.04
2022-08-28T02:54:02.987Z,37.43
2022-08-28T02:54:40.382Z,37.45
2022-08-28T02:55:17.843Z,37.59
2022-08-28T02:55:55.136Z,37.51
2022-08-28T02:56:32.118Z,37.45
2022-08-28T02:57:10.727Z,37.48
2022-08-28T02:57:47.750Z,37.43
2022-08-28T02:58:24.647Z,37.32
2022-08-28T02:59:01.581Z,37.27
2022-08-28T02:59:38.673Z,37.40
2022-08-28T03:00:15.946Z,37.20
2022-08-28T03:00:52.833Z,37.42
2022-08-28T03:01:30.958Z,37.24
2022-08-28T03:02:08.491Z,36.93
2022-08-28T03:02:46.629Z,37.22
2022-08-28T03:03:24.068Z,37.43
2022-08-28T03:04:01.594Z,37.18
2022-08-28T03:04:39.189Z,37.26
2022-08-28T03:05:16.321Z,37.46
2022-08-28T03:05:53.859Z,36.98
2022-08-28T03:06:31.951Z,37.08
2022-08-28T03:07:11.196Z,37.24
2022-08-28T03:07:48.856Z,37.00
2022-08-28T03:08:27.245Z,37.44
2022-08-28T03:09:04.228Z,37.22
2022-08-28T03:09:41.713Z,37.16
2022-08-28T03:10:19.923Z,37.23
2022-08-28T03:10:57.600Z,36.99
2022-08-28T03:11:35.655Z,37.15
2022-08-28T03:12:15.600Z,37.17
2022-08-28T03:12:58.801Z,37.06
2022-08-28T03:13:43.962Z,37.36
2022-08-28T03:14:29.839Z,37.36
2022-08-28T03:15:11.156Z,37.36
2022-08-28T03:15:48.149Z,37.19
2022-08-28T03:16:28.231Z,37.22
2022-08-28T03:17:05.088Z,37.13
2022-08-28T03:17:42.363Z,37.19
2022-08-28T03:18:19.842Z,37.18
2022-08-28T03:18:56.724Z,36.94
2022-08-28T03:19:33.736Z,37.43
2022-08-28T03:20:12.011Z,37.14
2022-08-28T03:20:49.399Z,37.35
2022-08-28T03:21:26.956Z,37.20
2022-08-28T03:22:03.923Z,37.19
2022-08-28T03:22:41.622Z,37.49
2022-08-28T03:23:19.596Z,37.02
2022-08-28T03:23:57.295Z,37.23
2022-08-28T03:24:34.974Z,37.19
2022-08-28T03:25:12.362Z,37.28
2022-08-28T03:25:48.915Z,36.98
2022-08-28T03:26:26.213Z,37.26
2022-08-28T03:27:03.717Z,37.28
2022-08-28T03:27:41.629Z,37.16
2022-08-28T03:28:20.305Z,37.33
2022-08-28T03:28:57.538Z,37.41
2022-08-28T03:29:36.861Z,37.33
2022-08-28T03:30:13.773Z,37.37
2022-08-28T03:30:50.969Z,37.21
2022-08-28T03:31:29.449Z,37.35
2022-08-28T03:32:06.766Z,37.35
2022-08-28T03:32:44.347Z,37.26
2022-08-28T03:33:22.699Z,37.56
2022-08-28T03:34:00.700Z,37.16
2022-08-28T03:34:39.005Z,37.08
2022-08-28T03:35:16.563Z,37.45
2022-08-28T03:35:54.219Z,37.25
2022-08-28T03:36:35.777Z,37.17
2022-08-28T03:37:17.495Z,37.27
2022-08-28T03:37:57.703Z,37.35
2022-08-28T03:38:37.668Z,37.24
2022-08-28T03:39:21.154Z,37.54
2022-08-28T03:40:06.087Z,37.30
2022-08-28T03:40:57.136Z,37.17
2022-08-28T03:41:45.751Z,37.20
2022-08-28T03:42:23.021Z,37.33
2022-08-28T03:43:01.597Z,37.39
2022-08-28T03:43:39.216Z,37.32
2022-08-28T03:44:17.170Z,37.22
2022-08-28T03:44:54.191Z,37.38
2022-08-28T03:45:31.110Z,37.31
2022-08-28T03:46:08.256Z,37.13
2022-08-28T03:46:45.240Z,37.14
2022-08-28T03:47:22.892Z,37.26
2022-08-28T03:48:00.410Z,37.32
2022-08-28T03:48:37.800Z,37.53
2022-08-28T03:49:19.378Z,37.61
2022-08-28T03:49:57.196Z,37.26
2022-08-28T03:50:35.055Z,37.26
2022-08-28T03:51:12.330Z,37.11
2022-08-28T03:51:50.236Z,37.24
2022-08-28T03:52:28.864Z,37.60
2022-08-28T03:53:06.358Z,37.31
2022-08-28T03:53:43.398Z,37.62
2022-08-28T03:54:20.385Z,37.55
2022-08-28T03:54:57.000Z,37.45
2022-08-28T03:55:34.338Z,37.21
2022-08-28T03:56:14.381Z,37.39
2022-08-28T03:56:52.109Z,37.39
2022-08-28T03:57:30.191Z,37.28
2022-08-28T03:58:07.321Z,37.24
2022-08-28T03:58:45.222Z,37.26
2022-08-28T03:59:22.707Z,37.54
2022-08-28T04:00:03.940Z,37.45
2022-08-28T04:00:41.142Z,37.40
2022-08-28T04:01:21.157Z,37.47
2022-08-28T04:01:59.856Z,37.54
2022-08-28T04:02:39.295Z,37.38
2022-08-28T04:03:20.564Z,37.40
2022-08-28T04:04:02.262Z,37.23
2022-08-28T04:04:43.901Z,37.57
2022-08-28T04:05:24.994Z,37.24
2022-08-28T04:06:05.963Z,37.33
2022-08-28T04:06:46.461Z,37.50
2022-08-28T04:07:26.837Z,37.61
2022-08-28T04:08:10.634Z,37.34
2022-08-28T04:08:52.880Z,37.35
2022-08-28T04:09:32.557Z,37.58
2022-08-28T04:10:14.177Z,37.29
2022-08-28T04:10:55.537Z,37.35
2022-08-28T04:11:38.675Z,37.57
2022-08-28T04:12:24.912Z,37.30
2022-08-28T04:13:10.957Z,37.82
2022-08-28T04:13:50.453Z,37.49
2022-08-28T04:14:27.075Z,37.38
2022-08-28T04:15:03.986Z,37.63
2022-08-28T04:15:41.255Z,37.54
2022-08-28T04:16:19.787Z,37.51
2022-08-28T04:16:59.765Z,37.15
2022-08-28T04:17:38.308Z,37.38
2022-08-28T04:18:15.223Z,37.71
2022-08-28T04:18:52.027Z,37.35
2022-08-28T04:19:28.757Z,37.36
2022-08-28T04:20:05.832Z,37.35
2022-08-28T04:20:46.385Z,37.69
2022-08-28T04:21:22.992Z,37.48
2022-08-28T04:22:00.454Z,37.10
2022-08-28T04:22:38.883Z,37.32
2022-08-28T04:23:17.585Z,37.52
2022-08-28T04:23:54.979Z,37.44
2022-08-28T04:24:33.165Z,37.24
2022-08-28T04:25:11.117Z,37.09
2022-08-28T04:25:49.104Z,37.50
2022-08-28T04:26:26.201Z,37.37
2022-08-28T04:27:03.813Z,37.41
2022-08-28T04:27:42.190Z,37.57
2022-08-28T04:28:19.881Z,37.52
2022-08-28T04:28:57.510Z,37.20
2022-08-28T04:29:38.866Z,37.28
2022-08-28T04:30:21.421Z,37.25
2022-08-28T04:31:06.941Z,37.33
2022-08-28T04:31:51.892Z,37.49
2022-08-28T04:32:34.703Z,37.52
2022-08-28T04:33:13.000Z,37.46
2022-08-28T04:33:50.180Z,37.19
2022-08-28T04:34:27.841Z,37.10
2022-08-28T04:35:04.683Z,37.26
2022-08-28T04:35:42.754Z,37.25
2022-08-28T04:36:19.731Z,37.35
2022-08-28T04:36:56.776Z,37.28
2022-08-28T04:37:34.069Z,37.45
2022-08-28T04:38:13.949Z,37.49
2022-08-28T04:38:51.340Z,37.43
2022-08-28T04:39:28.093Z,37.07
2022-08-28T04:40:05.180Z,37.66
2022-08-28T04:40:42.924Z,37.36
2022-08-28T04:41:20.077Z,37.26
2022-08-28T04:41:58.075Z,37.58
2022-08-28T04:42:35.827Z,37.21
2022-08-28T04:43:13.292Z,37.58
2022-08-28T04:43:52.576Z,37.23
2022-08-28T04:44:30.160Z,36.96
2022-08-28T04:45:08.084Z,37.20
2022-08-28T04:45:45.862Z,37.43
2022-08-28T04:46:23.398Z,37.21
2022-08-28T04:47:01.726Z,37.29
2022-08-28T04:47:38.557Z,37.02
2022-08-28T04:48:16.569Z,37.52
2022-08-28T04:48:54.043Z,37.45
2022-08-28T04:49:31.579Z,37.35
2022-08-28T04:50:09.576Z,37.56
2022-08-28T04:50:46.634Z,37.36
2022-08-28T04:51:23.883Z,37.02
2022-08-28T04:52:01.702Z,37.52
2022-08-28T04:52:39.155Z,37.29
2022-08-28T04:53:16.447Z,37.23
2022-08-28T04:53:54.463Z,37.21
2022-08-28T04:54:31.312Z,37.31
2022-08-28T04:55:08.454Z,37.54
2022-08-28T04:55:54.383Z,37.17
2022-08-28T04:56:31.483Z,37.02
2022-08-28T04:57:08.210Z,37.47
2022-08-28T04:57:45.804Z,37.40
2022-08-28T04:58:23.885Z,37.40
2022-08-28T04:59:01.618Z,37.20
2022-08-28T04:59:38.651Z,37.36
2022-08-28T05:00:15.658Z,37.22
2022-08-28T05:00:52.664Z,37.47
2022-08-28T05:01:29.605Z,37.35
2022-08-28T05:02:06.708Z,37.45
2022-08-28T05:02:43.595Z,37.39
2022-08-28T05:03:20.355Z,37.26
2022-08-28T05:03:58.706Z,37.19
2022-08-28T05:04:37.323Z,37.45
2022-08-28T05:05:14.624Z,37.34
2022-08-28T05:05:51.904Z,37.11
2022-08-28T05:06:29.155Z,37.37
2022-08-28T05:07:07.148Z,37.48
2022-08-28T05:07:44.993Z,37.44
2022-08-28T05:08:21.790Z,37.26
2022-08-28T05:08:59.026Z,37.30
2022-08-28T05:09:37.402Z,37.11
2022-08-28T05:10:14.797Z,37.24
2022-08-28T05:10:52.520Z,37.27
2022-08-28T05:11:34.265Z,37.50
2022-08-28T05:12:12.381Z,37.32
2022-08-28T05:12:52.252Z,37.49
2022-08-28T05:13:31.420Z,37.47
2022-08-28T05:14:16.093Z,37.21
2022-08-28T05:14:59.001Z,37.44
2022-08-28T05:15:49.718Z,37.05
2022-08-28T05:16:36.023Z,37.41
2022-08-28T05:17:13.479Z,37.54
2022-08-28T05:17:50.292Z,37.27
2022-08-28T05:18:27.678Z,37.16
2022-08-28T05:19:05.146Z,37.30
2022-08-28T05:19:41.670Z,37.47
2022-08-28T05:20:18.937Z,37.47
2022-08-28T05:20:55.514Z,37.14
2022-08-28T05:21:32.459Z,37.38
2022-08-28T05:22:10.237Z,37.25
2022-08-28T05:22:47.150Z,37.30
2022-08-28T05:23:24.187Z,37.41
2022-08-28T05:24:02.097Z,37.15
2022-08-28T05:24:42.297Z,37.23
2022-08-28T05:25:20.947Z,37.26
2022-08-28T05:25:58.185Z,37.55
2022-08-28T05:26:35.239Z,37.20
2022-08-28T05:27:15.444Z,37.42
2022-08-28T05:27:53.032Z,37.51
2022-08-28T05:28:30.505Z,37.60
2022-08-28T05:29:08.235Z,37.36
2022-08-28T05:29:45.823Z,37.29
2022-08-28T05:30:24.159Z,37.44
2022-08-28T05:31:10.638Z,37.21
2022-08-28T05:31:51.406Z,37.34
2022-08-28T05:32:35.038Z,37.41
2022-08-28T05:33:12.606Z,37.31
2022-08-28T05:33:52.075Z,37.51
2022-08-28T05:34:34.668Z,37.30
2022-08-28T05:35:15.902Z,37.22
2022-08-28T05:36:00.230Z,37.52
2022-08-28T05:36:41.834Z,37.21
2022-08-28T05:37:26.077Z,37.24
2022-08-28T05:38:10.933Z,37.21
2022-08-28T05:38:57.563Z,37.64
2022-08-28T05:39:35.048Z,37.48
2022-08-28T05:40:12.089Z,37.31
2022-08-28T05:40:50.152Z,37.16
2022-08-28T05:41:27.671Z,37.31
2022-08-28T05:42:05.430Z,37.43
2022-08-28T05:42:42.380Z,37.54
2022-08-28T05:43:19.840Z,37.36
2022-08-28T05:43:57.196Z,37.31
2022-08-28T05:44:35.130Z,37.33
2022-08-28T05:45:11.971Z,37.15
2022-08-28T05:45:49.192Z,37.13
2022-08-28T05:46:26.588Z,37.35
2022-08-28T05:47:04.167Z,37.10
2022-08-28T05:47:40.955Z,37.02
2022-08-28T05:48:18.427Z,37.53
2022-08-28T05:48:55.355Z,37.21
2022-08-28T05:49:32.375Z,37.19
2022-08-28T05:50:09.395Z,37.48
2022-08-28T05:50:47.359Z,37.23
2022-08-28T05:51:24.889Z,37.10
2022-08-28T05:52:03.966Z,37.16
2022-08-28T05:52:41.939Z,37.40
2022-08-28T05:53:20.014Z,37.34
2022-08-28T05:53:57.480Z,37.22
2022-08-28T05:54:35.053Z,37.28
2022-08-28T05:55:11.979Z,37.40
2022-08-28T05:55:51.715Z,37.22
2022-08-28T05:56:31.128Z,37.47
2022-08-28T05:57:09.908Z,37.47
2022-08-28T05:57:48.069Z,37.65
2022-08-28T05:58:24.476Z,37.43
2022-08-28T05:59:04.850Z,37.33
2022-08-28T05:59:44.989Z,37.21
2022-08-28T06:00:26.415Z,37.35
2022-08-28T06:01:07.878Z,37.34
2022-08-28T06:01:48.849Z,37.19
2022-08-28T06:02:29.623Z,37.32
2022-08-28T06:03:13.755Z,37.19
2022-08-28T06:03:54.776Z,37.19
2022-08-28T06:04:31.845Z,37.52
2022-08-28T06:05:09.091Z,37.39
2022-08-28T06:06:02.673Z,37.27
2022-08-28T06:06:49.167Z,37.34
2022-08-28T06:07:31.814Z,37.19
2022-08-28T06:08:09.340Z,37.40
2022-08-28T06:08:58.541Z,37.40
2022-08-28T06:09:35.414Z,37.23
2022-08-28T06:10:12.394Z,37.19
2022-08-28T06:10:50.915Z,37.21
2022-08-28T06:11:27.147Z,37.31
2022-08-28T06:12:06.815Z,37.24
2022-08-28T06:12:44.991Z,37.38
2022-08-28T06:13:22.256Z,37.34
2022-08-28T06:13:58.858Z,37.34
2022-08-28T06:14:35.737Z,37.20
2022-08-28T06:15:12.641Z,37.49
2022-08-28T06:15:49.570Z,37.33
2022-08-28T06:16:26.717Z,37.27
2022-08-28T06:17:04.074Z,37.24
2022-08-28T06:17:41.662Z,37.42
2022-08-28T06:18:20.056Z,37.24
2022-08-28T06:18:57.155Z,37.46
2022-08-28T06:19:37.249Z,37.41
2022-08-28T06:20:17.846Z,37.51
2022-08-28T06:21:02.097Z,37.13
2022-08-28T06:21:47.890Z,37.17
2022-08-28T06:22:33.427Z,37.41
2022-08-28T06:23:15.995Z,37.51
2022-08-28T06:24:00.852Z,37.36
2022-08-28T06:24:38.879Z,37.37
2022-08-28T06:25:16.309Z,37.38
2022-08-28T06:25:53.920Z,37.42
2022-08-28T06:26:32.049Z,37.30
2022-08-28T06:27:10.074Z,37.47
2022-08-28T06:27:48.058Z,37.26
2022-08-28T06:28:26.073Z,37.49
2022-08-28T06:29:03.258Z,37.37
2022-08-28T06:29:40.706Z,37.52
2022-08-28T06:30:18.263Z,37.37
2022-08-28T06:31:18.665Z,37.28
2022-08-28T06:31:51.974Z,37.36
2022-08-28T06:32:30.887Z,37.34
2022-08-28T06:33:09.602Z,37.52
2022-08-28T06:33:49.610Z,37.49
2022-08-28T06:34:32.499Z,37.42
2022-08-28T06:35:13.576Z,37.41
2022-08-28T06:35:54.965Z,37.24
2022-08-28T06:36:37.172Z,37.38
2022-08-28T06:37:19.395Z,37.30
2022-08-28T06:38:00.127Z,37.44
2022-08-28T06:38:41.334Z,37.29
2022-08-28T06:39:25.130Z,37.63
2022-08-28T06:40:14.224Z,37.33
2022-08-28T06:41:01.879Z,37.18
2022-08-28T06:41:41.765Z,37.23
2022-08-28T06:42:19.746Z,37.42
2022-08-28T06:43:33.637Z,37.75
2022-08-28T06:44:17.496Z,37.36
2022-08-28T06:45:00.307Z,37.49
2022-08-28T06:45:48.089Z,37.23
2022-08-28T06:46:32.443Z,37.22
2022-08-28T06:47:10.513Z,37.04
2022-08-28T06:47:52.843Z,37.17
2022-08-28T06:48:39.325Z,37.18
2022-08-28T06:49:24.357Z,37.56
2022-08-28T06:51:20.454Z,37.29
2022-08-28T06:52:06.240Z,37.40
2022-08-28T06:52:46.316Z,37.51
2022-08-28T06:53:35.061Z,37.42
2022-08-28T06:54:21.748Z,37.40
2022-08-28T06:55:18.075Z,37.63
2022-08-28T06:56:13.670Z,37.69
2022-08-28T06:57:13.195Z,37.28
2022-08-28T07:00:19.937Z,37.23
2022-08-28T07:04:23.945Z,37.25
2022-08-28T07:05:19.458Z,37.24
2022-08-28T07:06:11.205Z,37.28
2022-08-28T07:07:03.598Z,37.22
2022-08-28T07:07:47.216Z,37.52
2022-08-28T07:08:33.501Z,37.17
2022-08-28T07:10:19.563Z,37.15
2022-08-28T07:10:58.396Z,37.47
2022-08-28T07:11:41.760Z,37.29
2022-08-28T07:12:21.912Z,37.26
2022-08-28T07:13:08.641Z,37.37
2022-08-28T07:14:03.889Z,37.61
2022-08-28T07:15:03.905Z,37.39
2022-08-28T07:15:48.024Z,37.28
2022-08-28T07:16:27.741Z,37.12
2022-08-28T07:17:13.675Z,37.41
2022-08-28T07:18:00.043Z,37.31
2022-08-28T07:18:46.998Z,37.36
2022-08-28T07:19:39.916Z,37.23
2022-08-28T07:20:27.782Z,37.17
2022-08-28T07:21:25.691Z,37.36
2022-08-28T07:25:23.224Z,37.55
2022-08-28T07:26:16.984Z,37.45
2022-08-28T07:26:59.897Z,37.29
2022-08-28T07:27:41.902Z,37.33
2022-08-28T07:28:37.304Z,37.32
2022-08-28T07:29:23.461Z,37.38
2022-08-28T07:30:08.321Z,37.43
2022-08-28T07:31:00.701Z,37.47
2022-08-28T07:31:44.837Z,37.23
2022-08-28T07:32:29.161Z,37.28
2022-08-28T07:33:09.395Z,37.50
2022-08-28T07:33:50.116Z,37.58
2022-08-28T07:35:26.402Z,37.20
2022-08-28T07:36:16.070Z,37.15
2022-08-28T07:37:23.813Z,37.02
2022-08-28T07:38:11.906Z,37.37
2022-08-28T07:39:10.114Z,37.33
2022-08-28T07:41:05.601Z,37.39
2022-08-28T07:42:08.367Z,37.16
2022-08-28T07:42:53.700Z,37.27
2022-08-28T07:43:46.207Z,37.28
2022-08-28T07:44:35.619Z,37.00
2022-08-28T07:45:20.724Z,37.38
2022-08-28T07:46:05.454Z,37.64
2022-08-28T07:46:49.665Z,37.19
2022-08-28T07:47:35.447Z,37.71
2022-08-28T07:48:21.350Z,37.27
2022-08-28T07:49:01.946Z,37.22
2022-08-28T07:49:44.473Z,37.40
2022-08-28T07:50:21.859Z,37.07
2022-08-28T07:51:05.224Z,37.16
2022-08-28T07:51:48.346Z,37.08
2022-08-28T07:52:26.613Z,37.15
2022-08-28T07:53:14.848Z,36.92
2022-08-28T07:54:02.175Z,37.17
2022-08-28T07:54:59.234Z,37.03
2022-08-28T07:55:53.194Z,37.07
2022-08-28T07:58:50.869Z,37.26
2022-08-28T08:04:01.257Z,37.17
2022-08-28T08:04:45.458Z,36.86
2022-08-28T08:06:42.292Z,37.20
2022-08-28T08:07:33.554Z,37.19
2022-08-28T08:08:20.595Z,36.89
2022-08-28T08:09:11.975Z,36.95
2022-08-28T08:10:09.791Z,37.00
2022-08-28T08:11:07.556Z,36.74
2022-08-28T08:11:50.721Z,36.93
2022-08-28T08:12:45.013Z,37.18
2022-08-28T08:13:35.663Z,36.66
2022-08-28T08:14:15.655Z,36.93
2022-08-28T08:14:59.667Z,36.86
2022-08-28T08:15:43.990Z,36.73
2022-08-28T08:16:23.979Z,36.74
2022-08-28T08:17:09.575Z,36.41
2022-08-28T08:17:50.688Z,36.94
2022-08-28T08:18:42.134Z,36.75
2022-08-28T08:19:25.022Z,36.75
2022-08-28T08:20:06.105Z,36.78
2022-08-28T08:20:54.409Z,36.91
2022-08-28T08:21:44.019Z,37.04
2022-08-28T08:22:35.569Z,36.85
2022-08-28T08:23:17.338Z,36.84
2022-08-28T08:24:01.187Z,36.66
2022-08-28T08:24:48.686Z,36.88
2022-08-28T08:25:34.266Z,36.87
2022-08-28T08:26:17.009Z,36.65
2022-08-28T08:27:03.590Z,36.79
2022-08-28T08:27:45.055Z,36.92
2022-08-28T08:28:30.999Z,37.03
2022-08-28T08:29:13.090Z,36.87
2022-08-28T08:30:03.306Z,36.86
2022-08-28T08:30:49.229Z,36.97
2022-08-28T08:31:38.679Z,36.87
2022-08-28T08:32:35.004Z,36.87
2022-08-28T08:33:30.098Z,36.70
2022-08-28T08:34:26.089Z,36.85
2022-08-28T08:35:16.641Z,36.78
2022-08-28T08:36:05.940Z,36.61
2022-08-28T08:36:51.147Z,36.60
2022-08-28T08:37:34.730Z,36.66
2022-08-28T08:38:21.719Z,36.79
2022-08-28T08:39:10.873Z,36.81
2022-08-28T08:40:07.598Z,36.57
2022-08-28T08:41:04.250Z,36.85
2022-08-28T08:41:53.725Z,36.81
2022-08-28T08:42:44.561Z,36.68
2022-08-28T08:43:29.321Z,36.60
2022-08-28T08:44:33.967Z,36.50
2022-08-28T08:45:26.692Z,36.55
2022-08-28T08:46:24.220Z,36.42
2022-08-28T08:47:14.472Z,36.36
2022-08-28T08:48:05.682Z,36.62
2022-08-28T08:48:58.993Z,36.56
2022-08-28T08:49:50.619Z,36.66
2022-08-28T08:50:43.757Z,36.39
2022-08-28T08:51:33.875Z,36.52
2022-08-28T08:53:48.759Z,36.49
2022-08-28T08:54:44.852Z,36.58
2022-08-28T08:55:29.660Z,36.39
2022-08-28T08:56:15.545Z,36.54
2022-08-28T08:56:58.677Z,36.87
2022-08-28T08:57:44.519Z,36.58
2022-08-28T08:58:49.459Z,36.50
2022-08-28T08:59:42.126Z,36.49
2022-08-28T09:00:31.599Z,36.15
2022-08-28T09:01:19.439Z,36.36
2022-08-28T09:02:31.235Z,36.53
2022-08-28T09:03:23.844Z,36.36
2022-08-28T09:04:30.151Z,36.58
2022-08-28T09:05:13.804Z,36.52
2022-08-28T09:06:03.150Z,36.41
2022-08-28T09:06:53.922Z,36.28
2022-08-28T09:07:53.112Z,36.32
2022-08-28T09:08:45.746Z,36.52
2022-08-28T09:09:34.399Z,36.46
2022-08-28T09:10:25.985Z,36.48
2022-08-28T09:11:36.600Z,36.44